createdAt,value
2018-09-04T00:56:06.863Z,15.30
2018-09-04T00:58:35.295Z,15.30
2018-09-04T01:01:03.881Z,15.30
2018-09-04T01:03:32.627Z,15.30
2018-09-04T01:06:02.074Z,15.40
2018-09-04T01:08:30.798Z,15.40
2018-09-04T01:10:59.592Z,15.40
2018-09-04T01:13:29.342Z,15.30
2018-09-04T01:15:57.915Z,15.30
2018-09-04T01:18:28.632Z,15.30
2018-09-04T01:20:57.026Z,15.30
2018-09-04T01:23:25.809Z,15.30
2018-09-04T01:25:54.536Z,15.30
2018-09-04T01:28:23.413Z,15.30
2018-09-04T01:30:52.163Z,15.30
2018-09-04T01:33:21.199Z,15.30
2018-09-04T01:35:49.698Z,15.30
2018-09-04T01:38:19.912Z,15.30
2018-09-04T01:40:48.600Z,15.30
2018-09-04T01:43:17.012Z,15.30
2018-09-04T01:45:45.676Z,15.30
2018-09-04T01:48:14.805Z,15.30
2018-09-04T01:50:44.427Z,15.30
2018-09-04T01:53:13.156Z,15.30
2018-09-04T01:55:41.827Z,15.40
2018-09-04T01:58:10.483Z,15.30
2018-09-04T02:00:39.067Z,15.30
2018-09-04T02:03:07.892Z,15.30
2018-09-04T02:05:37.700Z,15.30
2018-09-04T02:08:06.135Z,15.30
2018-09-04T02:10:34.558Z,15.30
2018-09-04T02:13:02.939Z,15.30
2018-09-04T02:15:31.681Z,15.30
2018-09-04T02:18:00.097Z,15.30
2018-09-04T02:20:28.800Z,15.30
2018-09-04T02:22:57.732Z,15.30
2018-09-04T02:25:26.384Z,15.30
2018-09-04T02:27:55.097Z,15.30
2018-09-04T02:30:24.408Z,15.30
2018-09-04T02:32:52.885Z,15.30
2018-09-04T02:35:21.494Z,15.30
2018-09-04T02:37:50.135Z,15.30
2018-09-04T02:40:18.708Z,15.30
2018-09-04T02:42:47.077Z,15.30
2018-09-04T02:45:15.467Z,15.30
2018-09-04T02:47:45.394Z,15.30
2018-09-04T02:50:14.067Z,15.30
2018-09-04T02:52:42.779Z,15.30
2018-09-04T02:55:11.847Z,15.30
2018-09-04T02:57:40.690Z,15.30
2018-09-04T03:00:09.697Z,15.30
2018-09-04T03:02:38.175Z,15.30
2018-09-04T03:05:07.115Z,15.30
2018-09-04T03:07:36.393Z,15.30
2018-09-04T03:10:05.737Z,15.30
2018-09-04T03:12:34.357Z,15.30
2018-09-04T03:15:03.307Z,15.30
2018-09-04T03:17:31.719Z,15.30
2018-09-04T03:20:00.651Z,15.30
2018-09-04T03:22:29.020Z,15.30
2018-09-04T03:24:58.020Z,15.30
2018-09-04T03:27:26.664Z,15.30
2018-09-04T03:29:55.189Z,15.30
2018-09-04T03:32:25.523Z,15.30
2018-09-04T03:34:54.501Z,15.30
2018-09-04T03:37:23.388Z,15.30
2018-09-04T03:39:52.323Z,15.30
2018-09-04T03:42:21.081Z,15.30
2018-09-04T03:44:49.523Z,15.30
2018-09-04T03:47:18.186Z,15.30
2018-09-04T03:49:46.708Z,15.30
2018-09-04T03:52:16.404Z,15.30
2018-09-04T03:54:44.900Z,15.30
2018-09-04T03:57:13.696Z,15.30
2018-09-04T03:59:42.580Z,15.30
2018-09-04T04:02:11.010Z,15.30
2018-09-04T04:04:39.667Z,15.30
2018-09-04T04:07:09.174Z,15.30
2018-09-04T04:09:37.886Z,15.30
2018-09-04T04:12:06.463Z,15.30
2018-09-04T04:14:35.040Z,15.30
2018-09-04T04:17:03.671Z,15.30
2018-09-04T04:19:32.336Z,15.30
2018-09-04T04:22:00.789Z,15.20
2018-09-04T04:24:29.170Z,15.20
2018-09-04T04:26:58.259Z,15.20
2018-09-04T04:29:26.907Z,15.20
2018-09-04T04:31:56.400Z,15.20
2018-09-04T04:34:24.852Z,15.20
2018-09-04T04:36:54.134Z,15.10
2018-09-04T04:39:22.549Z,15.10
2018-09-04T04:41:51.304Z,15.10
2018-09-04T04:44:20.990Z,15.10
2018-09-04T04:46:49.647Z,15.10
2018-09-04T04:49:18.086Z,15.10
2018-09-04T04:51:47.005Z,15.10
2018-09-04T04:54:15.575Z,15.10
2018-09-04T04:56:44.138Z,15.10
2018-09-04T04:59:12.573Z,15.10
2018-09-04T05:01:42.367Z,15.00
2018-09-04T05:04:11.192Z,15.00
2018-09-04T05:06:39.930Z,15.10
2018-09-04T05:09:09.363Z,15.00
2018-09-04T05:11:38.004Z,15.10
2018-09-04T05:14:06.736Z,15.00
2018-09-04T05:16:35.957Z,15.00
2018-09-04T05:19:04.387Z,15.00
2018-09-04T05:21:33.309Z,15.00
2018-09-04T05:24:01.820Z,15.00
2018-09-04T05:26:30.418Z,15.00
2018-09-04T05:28:59.259Z,15.00
2018-09-04T05:31:28.001Z,15.00
2018-09-04T05:33:56.733Z,15.00
2018-09-04T05:36:25.815Z,15.00
2018-09-04T05:38:54.652Z,15.00
2018-09-04T05:41:23.221Z,15.00
2018-09-04T05:43:55.945Z,15.00
2018-09-04T05:46:57.134Z,15.10
2018-09-04T05:49:30.895Z,15.10
2018-09-04T05:51:59.413Z,15.10
2018-09-04T05:54:28.263Z,15.10
2018-09-04T05:56:57.172Z,15.20
2018-09-04T05:59:25.694Z,15.20
2018-09-04T06:01:55.024Z,15.20
2018-09-04T06:04:23.566Z,15.20
2018-09-04T06:06:52.039Z,15.20
2018-09-04T06:09:20.911Z,15.20
2018-09-04T06:11:49.800Z,15.20
2018-09-04T06:14:18.555Z,15.20
2018-09-04T06:16:46.974Z,15.20
2018-09-04T06:19:15.573Z,15.20
2018-09-04T06:21:44.207Z,15.10
2018-09-04T06:24:13.750Z,15.20
2018-09-04T06:26:42.183Z,15.10
2018-09-04T06:29:10.971Z,15.10
2018-09-04T06:31:40.336Z,15.10
2018-09-04T06:34:09.685Z,15.10
2018-09-04T06:36:38.460Z,15.10
2018-09-04T06:39:09.196Z,15.10
2018-09-04T06:41:38.444Z,15.20
2018-09-04T06:44:07.121Z,15.20
2018-09-04T06:46:36.041Z,15.10
2018-09-04T06:49:04.850Z,15.10
2018-09-04T06:51:34.644Z,15.10
2018-09-04T06:54:03.620Z,15.10
2018-09-04T06:56:32.204Z,15.10
2018-09-04T06:59:00.913Z,15.10
2018-09-04T07:01:30.120Z,15.10
2018-09-04T07:03:59.090Z,15.10
2018-09-04T07:06:28.682Z,15.10
2018-09-04T07:08:57.206Z,15.10
2018-09-04T07:11:27.149Z,15.10
2018-09-04T07:13:56.327Z,15.10
2018-09-04T07:16:24.734Z,15.10
2018-09-04T07:18:53.194Z,15.10
2018-09-04T07:21:21.885Z,15.10
2018-09-04T07:23:50.346Z,15.10
2018-09-04T07:26:18.884Z,15.10
2018-09-04T07:28:48.265Z,15.10
2018-09-04T07:31:17.181Z,15.10
2018-09-04T07:33:46.111Z,15.10
2018-09-04T07:36:14.581Z,15.10
2018-09-04T07:38:43.462Z,15.10
2018-09-04T07:41:12.269Z,15.10
2018-09-04T07:43:41.012Z,15.10
2018-09-04T07:46:09.825Z,15.00
2018-09-04T07:48:38.481Z,15.00
2018-09-04T07:51:07.265Z,15.00
2018-09-04T07:53:35.849Z,15.00
2018-09-04T07:56:04.304Z,15.00
2018-09-04T07:58:33.040Z,15.00
2018-09-04T08:01:01.844Z,14.90
2018-09-04T08:03:30.629Z,15.00
2018-09-04T08:06:00.317Z,14.90
2018-09-04T08:08:30.007Z,15.00
2018-09-04T08:10:58.665Z,14.90
2018-09-04T08:13:27.608Z,14.90
2018-09-04T08:15:56.228Z,14.90
2018-09-04T08:18:25.980Z,14.90
2018-09-04T08:20:55.337Z,15.00
2018-09-04T08:23:23.991Z,14.90
2018-09-04T08:25:52.708Z,15.00
2018-09-04T08:28:21.737Z,15.00
2018-09-04T08:30:50.408Z,14.90
2018-09-04T08:33:19.420Z,14.90
2018-09-04T08:35:49.593Z,14.90
2018-09-04T08:38:18.331Z,15.00
2018-09-04T08:40:47.392Z,15.00
2018-09-04T08:43:16.595Z,14.90
2018-09-04T08:45:45.378Z,14.90
2018-09-04T08:48:30.353Z,15.00
2018-09-04T08:50:59.170Z,15.00
2018-09-04T08:53:27.831Z,14.90
2018-09-04T08:55:56.683Z,15.00
2018-09-04T08:58:25.248Z,15.00
2018-09-04T09:00:54.042Z,15.00
2018-09-04T09:03:23.879Z,15.10
2018-09-04T09:05:52.988Z,15.10
2018-09-04T09:08:21.778Z,15.20
2018-09-04T09:10:50.622Z,15.20
2018-09-04T09:13:19.460Z,15.30
2018-09-04T09:15:48.796Z,15.30
2018-09-04T09:18:17.759Z,15.30
2018-09-04T09:20:48.852Z,15.30
2018-09-04T09:23:17.373Z,15.30
2018-09-04T09:25:47.116Z,15.40
2018-09-04T09:28:17.001Z,15.40
2018-09-04T09:30:45.653Z,15.40
2018-09-04T09:33:14.561Z,15.30
2018-09-04T09:35:43.481Z,15.30
2018-09-04T09:38:12.130Z,15.30
2018-09-04T09:40:40.602Z,15.30
2018-09-04T09:43:09.403Z,15.30
2018-09-04T09:45:38.374Z,15.40
2018-09-04T09:48:07.426Z,15.30
2018-09-04T09:50:35.869Z,15.30
2018-09-04T09:53:07.010Z,15.30
2018-09-04T09:55:35.663Z,15.30
2018-09-04T09:58:04.608Z,15.30
2018-09-04T10:00:38.555Z,15.40
2018-09-04T10:03:13.555Z,15.30
2018-09-04T10:05:42.182Z,15.30
2018-09-04T10:08:10.739Z,15.40
2018-09-04T10:10:39.981Z,15.40
2018-09-04T10:13:08.443Z,15.40
2018-09-04T10:15:41.525Z,15.50
2018-09-04T10:18:10.592Z,15.50
2018-09-04T10:20:39.055Z,15.60
2018-09-04T10:23:07.580Z,15.60
2018-09-04T10:25:36.052Z,15.60
2018-09-04T10:28:08.676Z,15.70
2018-09-04T10:30:38.903Z,15.80
2018-09-04T10:33:08.898Z,15.90
2018-09-04T10:35:44.783Z,15.90
2018-09-04T10:41:02.494Z,16.00
2018-09-04T10:43:31.928Z,16.10
2018-09-04T10:46:03.196Z,16.10
2018-09-04T10:48:32.120Z,16.20
2018-09-04T10:51:02.151Z,16.30
2018-09-04T10:53:30.716Z,16.40
2018-09-04T10:55:59.331Z,16.50
2018-09-04T10:58:28.433Z,16.70
2018-09-04T11:00:57.235Z,16.70
2018-09-04T11:03:28.019Z,16.70
2018-09-04T11:05:56.451Z,16.70
2018-09-04T11:08:26.413Z,16.80
2018-09-04T11:10:55.125Z,16.90
2018-09-04T11:13:23.760Z,16.90
2018-09-04T11:15:54.424Z,17.00
2018-09-04T11:18:23.850Z,17.10
2018-09-04T11:20:52.927Z,17.10
2018-09-04T11:23:22.176Z,17.10
2018-09-04T11:25:50.795Z,17.10
2018-09-04T11:28:20.367Z,17.10
2018-09-04T11:30:49.275Z,17.20
2018-09-04T11:33:18.242Z,17.10
2018-09-04T11:35:47.596Z,17.20
2018-09-04T11:38:16.533Z,17.20
2018-09-04T11:40:45.273Z,17.30
2018-09-04T11:43:16.629Z,17.30
2018-09-04T11:45:45.614Z,17.40
2018-09-04T11:48:18.435Z,17.50
2018-09-04T11:50:47.776Z,17.60
2018-09-04T11:53:17.353Z,17.80
2018-09-04T11:55:49.296Z,18.20
2018-09-04T11:58:18.452Z,18.70
2018-09-04T12:00:48.729Z,19.20
2018-09-04T12:03:19.242Z,19.40
2018-09-04T12:05:49.922Z,19.70
2018-09-04T12:08:19.984Z,20.10
2018-09-04T12:10:49.473Z,19.90
2018-09-04T12:13:25.278Z,20.10
2018-09-04T12:15:54.400Z,20.50
2018-09-04T12:18:24.899Z,21.10
2018-09-04T12:21:00.110Z,21.80
2018-09-04T12:23:30.727Z,22.30
2018-09-04T12:26:01.344Z,22.40
2018-09-04T12:28:30.504Z,22.30
2018-09-04T12:30:59.995Z,22.20
2018-09-04T12:33:29.450Z,21.70
2018-09-04T12:36:00.830Z,21.20
2018-09-04T12:38:32.809Z,20.90
2018-09-04T12:41:10.977Z,20.50
2018-09-04T12:43:40.479Z,20.30
2018-09-04T12:46:10.125Z,20.00
2018-09-04T12:48:38.748Z,19.70
2018-09-04T12:51:08.269Z,19.60
2018-09-04T12:53:39.436Z,19.50
2018-09-04T12:56:08.577Z,19.40
2018-09-04T12:58:37.824Z,19.40
2018-09-04T13:01:09.755Z,19.40
2018-09-04T13:03:41.228Z,19.60
2018-09-04T13:06:11.820Z,19.70
2018-09-04T13:08:40.931Z,19.80
2018-09-04T13:11:10.861Z,19.90
2018-09-04T13:13:39.812Z,19.90
2018-09-04T13:16:08.861Z,20.00
2018-09-04T13:18:38.961Z,19.90
2018-09-04T13:21:07.772Z,20.00
2018-09-04T13:23:37.508Z,20.10
2018-09-04T13:26:06.906Z,20.10
2018-09-04T13:28:37.127Z,20.20
2018-09-04T13:31:06.776Z,20.20
2018-09-04T13:33:36.796Z,20.30
2018-09-04T13:36:06.657Z,20.80
2018-09-04T13:38:36.336Z,21.20
2018-09-04T13:41:08.664Z,21.40
2018-09-04T13:43:39.352Z,21.30
2018-09-04T13:46:09.916Z,21.30
2018-09-04T13:48:39.471Z,21.10
2018-09-04T13:51:08.998Z,21.00
2018-09-04T13:53:37.776Z,20.70
2018-09-04T13:56:08.150Z,20.70
2018-09-04T13:58:37.101Z,20.20
2018-09-04T14:01:06.713Z,19.70
2018-09-04T14:03:35.793Z,19.40
2018-09-04T14:06:07.248Z,18.90
2018-09-04T14:08:36.648Z,18.50
2018-09-04T14:11:06.114Z,18.20
2018-09-04T14:13:35.148Z,17.90
2018-09-04T14:16:06.134Z,17.70
2018-09-04T14:18:36.655Z,17.50
2018-09-04T14:21:06.932Z,17.40
2018-09-04T14:23:35.951Z,17.30
2018-09-04T14:26:04.924Z,17.30
2018-09-04T14:28:41.580Z,17.20
2018-09-04T14:31:04.256Z,17.20
2018-09-04T14:33:34.567Z,17.20
2018-09-04T14:36:06.539Z,17.20
2018-09-04T14:38:37.204Z,17.20
2018-09-04T14:41:06.840Z,17.20
2018-09-04T14:43:37.171Z,17.20
2018-09-04T14:46:05.916Z,17.30
2018-09-04T14:48:36.705Z,17.40
2018-09-04T14:51:05.853Z,17.50
2018-09-04T14:53:35.565Z,17.60
2018-09-04T14:56:04.806Z,17.70
2018-09-04T14:58:34.032Z,17.80
2018-09-04T15:01:03.210Z,18.00
2018-09-04T15:03:32.347Z,18.10
2018-09-04T15:06:02.460Z,18.30
2018-09-04T15:08:32.935Z,18.60
2018-09-04T15:11:03.539Z,18.60
2018-09-04T15:13:32.540Z,18.80
2018-09-04T15:16:01.318Z,19.10
2018-09-04T15:18:30.296Z,19.20
2018-09-04T15:20:59.331Z,19.20
2018-09-04T15:23:32.363Z,19.30
2018-09-04T15:26:02.660Z,19.50
2018-09-04T15:28:32.386Z,19.70
2018-09-04T15:31:01.730Z,19.70
2018-09-04T15:33:32.188Z,19.90
2018-09-04T15:36:01.311Z,20.00
2018-09-04T15:38:29.980Z,19.90
2018-09-04T15:40:58.763Z,19.80
2018-09-04T15:43:27.546Z,19.70
2018-09-04T15:45:57.056Z,19.50
2018-09-04T15:48:27.549Z,19.40
2018-09-04T15:50:56.530Z,19.40
2018-09-04T15:53:25.018Z,19.40
2018-09-04T15:55:53.820Z,19.20
2018-09-04T15:58:22.579Z,19.20
2018-09-04T16:00:51.609Z,19.20
2018-09-04T16:03:20.513Z,19.20
2018-09-04T16:05:51.330Z,19.10
2018-09-04T16:08:20.277Z,19.00
2018-09-04T16:10:49.402Z,18.90
2018-09-04T16:13:18.583Z,18.90
2018-09-04T16:15:47.528Z,18.80
2018-09-04T16:18:18.085Z,18.70
2018-09-04T16:20:46.563Z,18.60
2018-09-04T16:23:15.176Z,18.60
2018-09-04T16:25:45.698Z,18.60
2018-09-04T16:28:15.573Z,18.60
2018-09-04T16:30:44.124Z,18.50
2018-09-04T16:33:13.257Z,18.50
2018-09-04T16:35:42.140Z,18.40
2018-09-04T16:38:12.768Z,18.30
2018-09-04T16:40:41.905Z,18.30
2018-09-04T16:43:10.324Z,18.20
2018-09-04T16:45:40.377Z,18.20
2018-09-04T16:48:09.533Z,18.10
2018-09-04T16:50:38.268Z,18.00
2018-09-04T16:53:07.133Z,18.00
2018-09-04T16:55:35.730Z,17.90
2018-09-04T16:58:05.040Z,17.90
2018-09-04T17:00:34.318Z,17.90
2018-09-04T17:03:04.873Z,17.80
2018-09-04T17:05:33.894Z,17.80
2018-09-04T17:08:02.877Z,17.80
2018-09-04T17:10:31.845Z,17.80
2018-09-04T17:13:00.597Z,17.80
2018-09-04T17:15:29.359Z,17.80
2018-09-04T17:17:59.222Z,17.70
2018-09-04T17:20:29.287Z,17.70
2018-09-04T17:22:58.919Z,17.70
2018-09-04T17:25:28.122Z,17.70
2018-09-04T17:27:56.980Z,17.70
2018-09-04T17:30:25.401Z,17.60
2018-09-04T17:32:54.615Z,17.60
2018-09-04T17:35:24.277Z,17.60
2018-09-04T17:37:54.721Z,17.50
2018-09-04T17:40:24.756Z,17.40
2018-09-04T17:42:53.694Z,17.40
2018-09-04T17:45:22.340Z,17.40
2018-09-04T17:47:50.837Z,17.40
2018-09-04T17:50:20.996Z,17.30
2018-09-04T17:52:49.459Z,17.30
2018-09-04T17:55:17.899Z,17.20
2018-09-04T17:57:47.396Z,17.20
2018-09-04T18:00:16.099Z,17.10
2018-09-04T18:02:46.359Z,17.10
2018-09-04T18:05:15.208Z,17.00
2018-09-04T18:07:43.722Z,16.90
2018-09-04T18:10:12.893Z,16.90
2018-09-04T18:12:41.629Z,16.80
2018-09-04T18:15:11.148Z,16.70
2018-09-04T18:17:39.991Z,16.70
2018-09-04T18:20:11.672Z,16.60
2018-09-04T18:22:40.404Z,16.60
2018-09-04T18:25:09.148Z,16.50
2018-09-04T18:27:38.456Z,16.50
2018-09-04T18:30:07.378Z,16.40
2018-09-04T18:32:36.169Z,16.30
2018-09-04T18:35:04.853Z,16.30
2018-09-04T18:37:34.275Z,16.30
2018-09-04T18:40:03.162Z,16.20
2018-09-04T18:42:32.284Z,16.20
2018-09-04T18:45:05.378Z,16.10
2018-09-04T18:47:36.478Z,16.00
2018-09-04T18:50:06.574Z,16.00
2018-09-04T18:52:35.558Z,16.00
2018-09-04T18:55:04.293Z,16.00
2018-09-04T18:57:32.926Z,15.90
2018-09-04T19:00:03.466Z,16.00
2018-09-04T19:02:31.850Z,16.00
2018-09-04T19:05:00.542Z,15.90
2018-09-04T19:07:28.998Z,16.00
2018-09-04T19:09:57.800Z,16.00
2018-09-04T19:12:27.775Z,15.90
2018-09-04T19:14:56.568Z,15.90
2018-09-04T19:17:25.646Z,16.00
2018-09-04T19:19:54.556Z,15.90
2018-09-04T19:22:24.859Z,15.90
2018-09-04T19:24:53.906Z,16.00
2018-09-04T19:27:23.228Z,16.00
2018-09-04T19:29:52.284Z,16.00
2018-09-04T19:32:20.989Z,15.90
2018-09-04T19:34:49.871Z,16.00
2018-09-04T19:37:18.597Z,16.00
2018-09-04T19:39:49.766Z,16.00
2018-09-04T19:42:18.766Z,15.90
2018-09-04T19:44:47.476Z,15.90
2018-09-04T19:47:17.640Z,15.90
2018-09-04T19:49:46.660Z,15.90
2018-09-04T19:52:15.505Z,15.90
2018-09-04T19:54:45.340Z,15.90
2018-09-04T19:57:14.250Z,15.90
2018-09-04T19:59:43.373Z,15.90
2018-09-04T20:02:12.296Z,15.90
2018-09-04T20:04:41.862Z,15.90
2018-09-04T20:07:10.338Z,15.90
2018-09-04T20:09:40.180Z,15.90
2018-09-04T20:12:11.528Z,15.80
2018-09-04T20:14:40.115Z,15.90
2018-09-04T20:17:09.697Z,15.90
2018-09-04T20:19:38.553Z,15.90
2018-09-04T20:22:09.206Z,15.90
2018-09-04T20:24:38.541Z,15.90
2018-09-04T20:27:07.260Z,15.90
2018-09-04T20:29:35.729Z,15.90
2018-09-04T20:32:05.509Z,15.90
2018-09-04T20:34:34.380Z,15.90
2018-09-04T20:37:02.844Z,15.90
2018-09-04T20:39:31.603Z,15.90
2018-09-04T20:42:00.229Z,15.80
2018-09-04T20:44:29.173Z,15.90
2018-09-04T20:46:58.482Z,15.80
2018-09-04T20:49:27.882Z,15.80
2018-09-04T20:51:56.436Z,15.80
2018-09-04T20:54:29.054Z,15.80
2018-09-04T20:57:32.155Z,15.80
2018-09-04T21:00:13.696Z,15.80
2018-09-04T21:02:54.358Z,15.80
2018-09-04T21:05:34.942Z,15.80
2018-09-04T21:09:14.782Z,15.80
2018-09-04T21:11:44.981Z,15.80
2018-09-04T21:14:15.233Z,15.80
2018-09-04T21:16:43.723Z,15.80
2018-09-04T21:19:12.461Z,15.80
2018-09-04T21:21:42.321Z,15.80
2018-09-04T21:24:10.773Z,15.80
2018-09-04T21:26:39.893Z,15.70
2018-09-04T21:29:09.371Z,15.70
2018-09-04T21:31:38.052Z,15.70
2018-09-04T21:34:07.737Z,15.70
2018-09-04T21:36:36.535Z,15.70
2018-09-04T21:39:07.058Z,15.60
2018-09-04T21:41:36.046Z,15.60
2018-09-04T21:44:04.904Z,15.60
2018-09-04T21:46:34.630Z,15.60
2018-09-04T21:49:03.491Z,15.60
2018-09-04T21:51:32.425Z,15.60
